Hokuo Maru — JD3726 — position and weather

sailwx.info

Track history (hours):
 
Tides and Currents Weather Stations Pressure Air Temp Water Temp Dewpoint Dewpoint Depression Visibility Wind Speed Wind Dir Waves Ship Positions

Hokuo Maru

Last reported at 2018-Feb-18 18:30 UTC. Time now 2018-Feb-18 18:36 UTC.
Position N 35°02' E 138°31'.

Length 173 m; draft 7 m.

Type: Cargo ship. MMSI: 431001040.

Date/timePositionNaut miles runAvg speedWind from/ knotsBaromVisibWave heightAir tempDewpointWater temp
2018-Feb-18 18:30N 35°02' E 138°31'0 0.0
2018-Feb-18 18:00N 35°02' E 138°31'0 0.0
2018-Feb-18 17:30N 35°02' E 138°31'0 0.0
2018-Feb-18 17:00N 35°02' E 138°31'0 0.0
2018-Feb-18 16:30N 35°02' E 138°31'0 0.0
2018-Feb-18 16:00N 35°02' E 138°31'0 0.0
2018-Feb-18 15:30N 35°02' E 138°31'0 0.0
2018-Feb-18 15:00N 35°02' E 138°31'0 0.0
2018-Feb-18 14:30N 35°02' E 138°31'0 0.0
2018-Feb-18 14:00N 35°02' E 138°31'0 0.0
2018-Feb-18 13:30N 35°02' E 138°31'0 0.0
2018-Feb-18 13:00N 35°02' E 138°31'0 0.0
2018-Feb-18 12:30N 35°02' E 138°31'0 0.0
2018-Feb-18 12:00N 35°02' E 138°31'0 0.0
2018-Feb-18 11:30N 35°02' E 138°31'0 0.0
2018-Feb-18 11:00N 35°02' E 138°31'0 0.0
2018-Feb-18 10:30N 35°02' E 138°31'0 0.0
2018-Feb-18 10:00N 35°02' E 138°31'0 0.0
2018-Feb-18 09:30N 35°02' E 138°31'4 8.0
2018-Feb-18 09:00N 34°59' E 138°33'918.4
2018-Feb-18 08:30N 34°50' E 138°29'1019.0
2018-Feb-18 07:58N 34°40' E 138°25'919.0
2018-Feb-18 07:30N 34°33' E 138°20'1020.7
2018-Feb-18 07:00N 34°31' E 138°08'1020.6
2018-Feb-18 06:30N 34°27' E 137°56'1019.8
2018-Feb-18 06:00N 34°23' E 137°45'29218.3
2018-Feb-17 14:05N 33°12' E 132°04'322.0
2018-Feb-17 13:56N 33°15' E 132°02'819.1
2018-Feb-17 13:30N 33°18' E 131°53'714.6
2018-Feb-17 13:00N 33°16' E 131°44'1 1.4
2018-Feb-17 12:30N 33°15' E 131°45'0 0.0
2018-Feb-17 12:00N 33°15' E 131°45'0 0.0
2018-Feb-17 11:26N 33°15' E 131°45'0 0.0
2018-Feb-17 10:59N 33°15' E 131°45'0 0.0
2018-Feb-17 10:29N 33°15' E 131°45'0 0.0
2018-Feb-17 09:50N 33°15' E 131°45'0 0.1
2018-Feb-17 09:30N 33°15' E 131°45'4 8.3
2018-Feb-17 09:00N 33°18' E 131°49'917.2
2018-Feb-17 08:28N 33°17' E 131°60'29418.6
2018-Feb-16 16:42N 34°23' E 137°44'621.7
2018-Feb-16 16:25N 34°24' E 137°51'921.4
2018-Feb-16 16:00N 34°27' E 138°02'1220.5
2018-Feb-16 15:24N 34°31' E 138°16'819.9
2018-Feb-16 15:00N 34°36' E 138°23'1021.1
2018-Feb-16 14:30N 34°46' E 138°28'1020.4
2018-Feb-16 14:00N 34°56' E 138°32'611.7
2018-Feb-16 13:30N 35°02' E 138°31'1 1.1
2018-Feb-16 12:58N 35°02' E 138°31'0 0.0
2018-Feb-16 12:29N 35°02' E 138°31'0 0.0
2018-Feb-16 12:00N 35°02' E 138°31'0 0.0
2018-Feb-16 11:30N 35°02' E 138°31'0 0.0
2018-Feb-16 11:00N 35°02' E 138°31'0 0.0
2018-Feb-16 10:30N 35°02' E 138°31'0 0.0
2018-Feb-16 09:57N 35°02' E 138°31'0 0.6
2018-Feb-16 09:30N 35°02' E 138°31'4 7.1
2018-Feb-16 09:00N 34°59' E 138°33'917.3
2018-Feb-16 08:30N 34°51' E 138°29'1019.4
2018-Feb-16 08:01N 34°42' E 138°24'917.9
2018-Feb-16 07:29N 34°34' E 138°18'919.4
2018-Feb-16 07:00N 34°33' E 138°07'1019.1
2018-Feb-16 06:28N 34°31' E 137°54'1018.2
2018-Feb-16 05:56N 34°30' E 137°43'23518.9
2018-Feb-15 17:28N 32°51' E 133°26'7117.5
2018-Feb-15 13:26N 33°12' E 132°05'921.1
2018-Feb-15 13:00N 33°18' E 131°57'917.9
2018-Feb-15 12:30N 33°17' E 131°46'2 4.4
2018-Feb-15 12:00N 33°15' E 131°45'0 0.0
2018-Feb-15 11:30N 33°15' E 131°45'0 0.0
2018-Feb-15 10:58N 33°15' E 131°45'0 0.0
2018-Feb-15 10:25N 33°15' E 131°45'0 0.0
2018-Feb-15 09:55N 33°15' E 131°45'0 0.3
2018-Feb-15 09:29N 33°15' E 131°45'5 9.7
2018-Feb-15 09:00N 33°18' E 131°49'917.8
2018-Feb-15 08:30N 33°17' E 131°60'15017.3
2018-Feb-14 23:51N 33°30' E 134°59'818.1
2018-Feb-14 23:26N 33°30' E 135°08'13819.6
2018-Feb-14 16:22N 34°22' E 137°42'1621.2
2018-Feb-14 15:37N 34°26' E 138°01'220.5
2018-Feb-14 15:30N 34°27' E 138°03'1020.1
2018-Feb-14 14:59N 34°30' E 138°16'1020.2
2018-Feb-14 14:30N 34°36' E 138°25'1121.2
2018-Feb-14 14:00N 34°46' E 138°28'1020.1
2018-Feb-14 13:30N 34°56' E 138°32'611.6
2018-Feb-14 13:00N 35°02' E 138°31'1 1.1
2018-Feb-14 12:30N 35°02' E 138°31'0 0.0
2018-Feb-14 12:00N 35°02' E 138°31'0 0.0
2018-Feb-14 11:30N 35°02' E 138°31'0 0.0
2018-Feb-14 11:00N 35°02' E 138°31'0 0.0
2018-Feb-14 10:30N 35°02' E 138°31'0 0.0
2018-Feb-14 10:00N 35°02' E 138°31'0 0.0
2018-Feb-14 09:30N 35°02' E 138°31'3 6.5
2018-Feb-14 09:00N 34°60' E 138°33'917.7
2018-Feb-14 08:30N 34°51' E 138°30'1019.0
2018-Feb-14 08:00N 34°42' E 138°26'917.3
2018-Feb-14 07:30N 34°35' E 138°21'1019.0
2018-Feb-14 06:59N 34°33' E 138°09'1019.2
2018-Feb-14 06:27N 34°31' E 137°57'24719.8
2018-Feb-13 17:58N 32°51' E 133°25'1021.1
2018-Feb-13 17:29N 32°47' E 133°14'6318.3
2018-Feb-13 14:04N 33°12' E 132°06'523.1
2018-Feb-13 13:52N 33°15' E 132°02'719.7
2018-Feb-13 13:30N 33°18' E 131°54'816.4
2018-Feb-13 13:00N 33°16' E 131°45'1 1.9
2018-Feb-13 12:30N 33°15' E 131°45'0 0.0
2018-Feb-13 11:59N 33°15' E 131°45'0 0.0
2018-Feb-13 11:28N 33°15' E 131°45'0 0.0
2018-Feb-13 10:58N 33°15' E 131°45'0 0.0
2018-Feb-13 10:16N 33°15' E 131°45'0 0.0
2018-Feb-13 09:58N 33°15' E 131°45'0 0.1
2018-Feb-13 09:30N 33°15' E 131°45'5 9.9
2018-Feb-13 09:00N 33°18' E 131°50'917.1
2018-Feb-13 08:29N 33°18' E 132°00'32116.9
2018-Feb-12 13:28N 34°31' E 138°17'918.6
2018-Feb-12 13:00N 34°38' E 138°24'1020.0
2018-Feb-12 12:30N 34°47' E 138°28'1019.4
2018-Feb-12 12:00N 34°56' E 138°32'611.3
2018-Feb-12 11:31N 35°02' E 138°31'0 0.4
2018-Feb-12 11:01N 35°02' E 138°31'0 0.0
2018-Feb-12 10:30N 35°02' E 138°31'0 0.0
2018-Feb-12 09:58N 35°02' E 138°31'0 0.0
2018-Feb-12 09:28N 35°02' E 138°31'0 0.0
2018-Feb-12 08:58N 35°02' E 138°31'0 0.0
2018-Feb-12 08:29N 35°02' E 138°31'0 0.0
2018-Feb-12 07:58N 35°02' E 138°31'0 0.0
2018-Feb-12 07:28N 35°02' E 138°31'0 0.0
2018-Feb-12 06:58N 35°02' E 138°31'0 0.0
2018-Feb-12 06:28N 35°02' E 138°31'0 0.0
2018-Feb-12 05:58N 35°02' E 138°31'0 0.0
2018-Feb-12 05:28N 35°02' E 138°31'0 0.0
2018-Feb-12 04:58N 35°02' E 138°31'0 0.0
2018-Feb-12 04:28N 35°02' E 138°31'0 0.0
2018-Feb-12 03:58N 35°02' E 138°31'0 0.0
2018-Feb-12 03:28N 35°02' E 138°31'0 0.0
2018-Feb-12 02:58N 35°02' E 138°31'0 0.0
2018-Feb-12 02:28N 35°02' E 138°31'0 0.0
2018-Feb-12 01:58N 35°02' E 138°31'0 0.0
2018-Feb-12 01:28N 35°02' E 138°31'0 0.0
2018-Feb-12 00:58N 35°02' E 138°31'0 0.0
2018-Feb-12 00:28N 35°02' E 138°31'0 0.0
2018-Feb-11 23:58N 35°02' E 138°31'0 0.0
2018-Feb-11 23:28N 35°02' E 138°31'0 0.0
2018-Feb-11 22:58N 35°02' E 138°31'0 0.0
2018-Feb-11 22:28N 35°02' E 138°31'0 0.0
2018-Feb-11 21:58N 35°02' E 138°31'0 0.0
2018-Feb-11 21:28N 35°02' E 138°31'0 0.0
2018-Feb-11 20:58N 35°02' E 138°31'0 0.0
2018-Feb-11 20:28N 35°02' E 138°31'0 0.0
2018-Feb-11 19:58N 35°02' E 138°31'0 0.0
2018-Feb-11 19:28N 35°02' E 138°31'0 0.0
2018-Feb-11 18:58N 35°02' E 138°31'0 0.0
2018-Feb-11 18:28N 35°02' E 138°31'0 0.0
2018-Feb-11 17:58N 35°02' E 138°31'0 0.0
2018-Feb-11 17:28N 35°02' E 138°31'0 0.0
2018-Feb-11 16:58N 35°02' E 138°31'0 0.0
2018-Feb-11 16:28N 35°02' E 138°31'0 0.0
2018-Feb-11 15:58N 35°02' E 138°31'0 0.0
2018-Feb-11 15:28N 35°02' E 138°31'0 0.0
2018-Feb-11 14:58N 35°02' E 138°31'0 0.0
2018-Feb-11 14:28N 35°02' E 138°31'0 0.0
2018-Feb-11 13:58N 35°02' E 138°31'0 0.0
2018-Feb-11 13:28N 35°02' E 138°31'0 0.0
2018-Feb-11 12:58N 35°02' E 138°31'0 0.0
2018-Feb-11 12:28N 35°02' E 138°31'0 0.0
2018-Feb-11 11:58N 35°02' E 138°31'0 0.0
2018-Feb-11 11:28N 35°02' E 138°31'0 0.0
2018-Feb-11 10:58N 35°02' E 138°31'0 0.0
2018-Feb-11 10:28N 35°02' E 138°31'0 0.0
2018-Feb-11 09:58N 35°02' E 138°31'0 0.2
2018-Feb-11 09:31N 35°02' E 138°31'4 7.8
2018-Feb-11 09:00N 34°58' E 138°33'715.2
2018-Feb-11 08:30N 34°52' E 138°29'918.2
2018-Feb-11 08:00N 34°43' E 138°25'918.2
2018-Feb-11 07:30N 34°35' E 138°20'1018.3
2018-Feb-11 06:57N 34°33' E 138°08'918.6
2018-Feb-11 06:27N 34°31' E 137°57'1019.0
2018-Feb-11 05:56N 34°28' E 137°45'5519.4
2018-Feb-11 03:08N 34°02' E 136°48'19319.0
2018-Feb-10 16:59N 32°47' E 133°14'6218.0
2018-Feb-10 13:33N 33°11' E 132°07'322.0
2018-Feb-10 13:25N 33°13' E 132°04'921.1
2018-Feb-10 12:59N 33°19' E 131°56'918.4
2018-Feb-10 12:30N 33°17' E 131°45'2 3.6
2018-Feb-10 12:00N 33°15' E 131°45'0 0.0
2018-Feb-10 11:30N 33°15' E 131°45'0 0.0
2018-Feb-10 10:49N 33°15' E 131°45'0 0.0
2018-Feb-10 10:28N 33°15' E 131°45'0 0.0
2018-Feb-10 09:55N 33°15' E 131°45'0 0.2
2018-Feb-10 09:31N 33°15' E 131°45'4 8.8
2018-Feb-10 09:00N 33°18' E 131°49'917.4
2018-Feb-10 08:30N 33°17' E 131°60'34118.0
2018-Feb-09 13:30N 34°59' E 138°33'3 2.2
2018-Feb-09 12:00N 35°02' E 138°31'0 0.1
2018-Feb-09 09:30N 35°02' E 138°31'4 7.7
2018-Feb-09 09:00N 34°59' E 138°34'815.5
2018-Feb-09 08:31N 34°52' E 138°30'  
Track history (hours):
 
Tides and Currents Weather Stations Pressure Air Temp Water Temp Dewpoint Dewpoint Depression Visibility Wind Speed Wind Dir Waves Ship Positions

Hokuo Maru

Last reported at 2018-Feb-18 18:30 UTC. Time now 2018-Feb-18 18:36 UTC.
Position N 35°02' E 138°31'.

Length 173 m; draft 7 m.

Type: Cargo ship. MMSI: 431001040.

Date/timePositionNaut miles runAvg speedWind from/ knotsBaromVisibWave heightAir tempDewpointWater temp
2018-Feb-18 18:30N 35°02' E 138°31'0 0.0
2018-Feb-18 18:00N 35°02' E 138°31'0 0.0
2018-Feb-18 17:30N 35°02' E 138°31'0 0.0
2018-Feb-18 17:00N 35°02' E 138°31'0 0.0
2018-Feb-18 16:30N 35°02' E 138°31'0 0.0
2018-Feb-18 16:00N 35°02' E 138°31'0 0.0
2018-Feb-18 15:30N 35°02' E 138°31'0 0.0
2018-Feb-18 15:00N 35°02' E 138°31'0 0.0
2018-Feb-18 14:30N 35°02' E 138°31'0 0.0
2018-Feb-18 14:00N 35°02' E 138°31'0 0.0
2018-Feb-18 13:30N 35°02' E 138°31'0 0.0
2018-Feb-18 13:00N 35°02' E 138°31'0 0.0
2018-Feb-18 12:30N 35°02' E 138°31'0 0.0
2018-Feb-18 12:00N 35°02' E 138°31'0 0.0
2018-Feb-18 11:30N 35°02' E 138°31'0 0.0
2018-Feb-18 11:00N 35°02' E 138°31'0 0.0
2018-Feb-18 10:30N 35°02' E 138°31'0 0.0
2018-Feb-18 10:00N 35°02' E 138°31'0 0.0
2018-Feb-18 09:30N 35°02' E 138°31'4 8.0
2018-Feb-18 09:00N 34°59' E 138°33'918.4
2018-Feb-18 08:30N 34°50' E 138°29'1019.0
2018-Feb-18 07:58N 34°40' E 138°25'919.0
2018-Feb-18 07:30N 34°33' E 138°20'1020.7
2018-Feb-18 07:00N 34°31' E 138°08'1020.6
2018-Feb-18 06:30N 34°27' E 137°56'1019.8
2018-Feb-18 06:00N 34°23' E 137°45'29218.3
2018-Feb-17 14:05N 33°12' E 132°04'322.0
2018-Feb-17 13:56N 33°15' E 132°02'819.1
2018-Feb-17 13:30N 33°18' E 131°53'714.6
2018-Feb-17 13:00N 33°16' E 131°44'1 1.4
2018-Feb-17 12:30N 33°15' E 131°45'0 0.0
2018-Feb-17 12:00N 33°15' E 131°45'0 0.0
2018-Feb-17 11:26N 33°15' E 131°45'0 0.0
2018-Feb-17 10:59N 33°15' E 131°45'0 0.0
2018-Feb-17 10:29N 33°15' E 131°45'0 0.0
2018-Feb-17 09:50N 33°15' E 131°45'0 0.1
2018-Feb-17 09:30N 33°15' E 131°45'4 8.3
2018-Feb-17 09:00N 33°18' E 131°49'917.2
2018-Feb-17 08:28N 33°17' E 131°60'29418.6
2018-Feb-16 16:42N 34°23' E 137°44'621.7
2018-Feb-16 16:25N 34°24' E 137°51'921.4
2018-Feb-16 16:00N 34°27' E 138°02'1220.5
2018-Feb-16 15:24N 34°31' E 138°16'819.9
2018-Feb-16 15:00N 34°36' E 138°23'1021.1
2018-Feb-16 14:30N 34°46' E 138°28'1020.4
2018-Feb-16 14:00N 34°56' E 138°32'611.7
2018-Feb-16 13:30N 35°02' E 138°31'1 1.1
2018-Feb-16 12:58N 35°02' E 138°31'0 0.0
2018-Feb-16 12:29N 35°02' E 138°31'0 0.0
2018-Feb-16 12:00N 35°02' E 138°31'0 0.0
2018-Feb-16 11:30N 35°02' E 138°31'0 0.0
2018-Feb-16 11:00N 35°02' E 138°31'0 0.0
2018-Feb-16 10:30N 35°02' E 138°31'0 0.0
2018-Feb-16 09:57N 35°02' E 138°31'0 0.6
2018-Feb-16 09:30N 35°02' E 138°31'4 7.1
2018-Feb-16 09:00N 34°59' E 138°33'917.3
2018-Feb-16 08:30N 34°51' E 138°29'1019.4
2018-Feb-16 08:01N 34°42' E 138°24'917.9
2018-Feb-16 07:29N 34°34' E 138°18'919.4
2018-Feb-16 07:00N 34°33' E 138°07'1019.1
2018-Feb-16 06:28N 34°31' E 137°54'1018.2
2018-Feb-16 05:56N 34°30' E 137°43'23518.9
2018-Feb-15 17:28N 32°51' E 133°26'7117.5
2018-Feb-15 13:26N 33°12' E 132°05'921.1
2018-Feb-15 13:00N 33°18' E 131°57'917.9
2018-Feb-15 12:30N 33°17' E 131°46'2 4.4
2018-Feb-15 12:00N 33°15' E 131°45'0 0.0
2018-Feb-15 11:30N 33°15' E 131°45'0 0.0
2018-Feb-15 10:58N 33°15' E 131°45'0 0.0
2018-Feb-15 10:25N 33°15' E 131°45'0 0.0
2018-Feb-15 09:55N 33°15' E 131°45'0 0.3
2018-Feb-15 09:29N 33°15' E 131°45'5 9.7
2018-Feb-15 09:00N 33°18' E 131°49'917.8
2018-Feb-15 08:30N 33°17' E 131°60'15017.3
2018-Feb-14 23:51N 33°30' E 134°59'818.1
2018-Feb-14 23:26N 33°30' E 135°08'13819.6
2018-Feb-14 16:22N 34°22' E 137°42'1621.2
2018-Feb-14 15:37N 34°26' E 138°01'220.5
2018-Feb-14 15:30N 34°27' E 138°03'1020.1
2018-Feb-14 14:59N 34°30' E 138°16'1020.2
2018-Feb-14 14:30N 34°36' E 138°25'1121.2
2018-Feb-14 14:00N 34°46' E 138°28'1020.1
2018-Feb-14 13:30N 34°56' E 138°32'611.6
2018-Feb-14 13:00N 35°02' E 138°31'1 1.1
2018-Feb-14 12:30N 35°02' E 138°31'0 0.0
2018-Feb-14 12:00N 35°02' E 138°31'0 0.0
2018-Feb-14 11:30N 35°02' E 138°31'0 0.0
2018-Feb-14 11:00N 35°02' E 138°31'0 0.0
2018-Feb-14 10:30N 35°02' E 138°31'0 0.0
2018-Feb-14 10:00N 35°02' E 138°31'0 0.0
2018-Feb-14 09:30N 35°02' E 138°31'3 6.5
2018-Feb-14 09:00N 34°60' E 138°33'917.7
2018-Feb-14 08:30N 34°51' E 138°30'1019.0
2018-Feb-14 08:00N 34°42' E 138°26'917.3
2018-Feb-14 07:30N 34°35' E 138°21'1019.0
2018-Feb-14 06:59N 34°33' E 138°09'1019.2
2018-Feb-14 06:27N 34°31' E 137°57'24719.8
2018-Feb-13 17:58N 32°51' E 133°25'1021.1
2018-Feb-13 17:29N 32°47' E 133°14'6318.3
2018-Feb-13 14:04N 33°12' E 132°06'523.1
2018-Feb-13 13:52N 33°15' E 132°02'719.7
2018-Feb-13 13:30N 33°18' E 131°54'816.4
2018-Feb-13 13:00N 33°16' E 131°45'1 1.9
2018-Feb-13 12:30N 33°15' E 131°45'0 0.0
2018-Feb-13 11:59N 33°15' E 131°45'0 0.0
2018-Feb-13 11:28N 33°15' E 131°45'0 0.0
2018-Feb-13 10:58N 33°15' E 131°45'0 0.0
2018-Feb-13 10:16N 33°15' E 131°45'0 0.0
2018-Feb-13 09:58N 33°15' E 131°45'0 0.1
2018-Feb-13 09:30N 33°15' E 131°45'5 9.9
2018-Feb-13 09:00N 33°18' E 131°50'917.1
2018-Feb-13 08:29N 33°18' E 132°00'32116.9
2018-Feb-12 13:28N 34°31' E 138°17'918.6
2018-Feb-12 13:00N 34°38' E 138°24'1020.0
2018-Feb-12 12:30N 34°47' E 138°28'1019.4
2018-Feb-12 12:00N 34°56' E 138°32'611.3
2018-Feb-12 11:31N 35°02' E 138°31'0 0.4
2018-Feb-12 11:01N 35°02' E 138°31'0 0.0
2018-Feb-12 10:30N 35°02' E 138°31'0 0.0
2018-Feb-12 09:58N 35°02' E 138°31'0 0.0
2018-Feb-12 09:28N 35°02' E 138°31'0 0.0
2018-Feb-12 08:58N 35°02' E 138°31'0 0.0
2018-Feb-12 08:29N 35°02' E 138°31'0 0.0
2018-Feb-12 07:58N 35°02' E 138°31'0 0.0
2018-Feb-12 07:28N 35°02' E 138°31'0 0.0
2018-Feb-12 06:58N 35°02' E 138°31'0 0.0
2018-Feb-12 06:28N 35°02' E 138°31'0 0.0
2018-Feb-12 05:58N 35°02' E 138°31'0 0.0
2018-Feb-12 05:28N 35°02' E 138°31'0 0.0
2018-Feb-12 04:58N 35°02' E 138°31'0 0.0
2018-Feb-12 04:28N 35°02' E 138°31'0 0.0
2018-Feb-12 03:58N 35°02' E 138°31'0 0.0
2018-Feb-12 03:28N 35°02' E 138°31'0 0.0
2018-Feb-12 02:58N 35°02' E 138°31'0 0.0
2018-Feb-12 02:28N 35°02' E 138°31'0 0.0
2018-Feb-12 01:58N 35°02' E 138°31'0 0.0
2018-Feb-12 01:28N 35°02' E 138°31'0 0.0
2018-Feb-12 00:58N 35°02' E 138°31'0 0.0
2018-Feb-12 00:28N 35°02' E 138°31'0 0.0
2018-Feb-11 23:58N 35°02' E 138°31'0 0.0
2018-Feb-11 23:28N 35°02' E 138°31'0 0.0
2018-Feb-11 22:58N 35°02' E 138°31'0 0.0
2018-Feb-11 22:28N 35°02' E 138°31'0 0.0
2018-Feb-11 21:58N 35°02' E 138°31'0 0.0
2018-Feb-11 21:28N 35°02' E 138°31'0 0.0
2018-Feb-11 20:58N 35°02' E 138°31'0 0.0
2018-Feb-11 20:28N 35°02' E 138°31'0 0.0
2018-Feb-11 19:58N 35°02' E 138°31'0 0.0
2018-Feb-11 19:28N 35°02' E 138°31'0 0.0
2018-Feb-11 18:58N 35°02' E 138°31'0 0.0
2018-Feb-11 18:28N 35°02' E 138°31'0 0.0
2018-Feb-11 17:58N 35°02' E 138°31'0 0.0
2018-Feb-11 17:28N 35°02' E 138°31'0 0.0
2018-Feb-11 16:58N 35°02' E 138°31'0 0.0
2018-Feb-11 16:28N 35°02' E 138°31'0 0.0
2018-Feb-11 15:58N 35°02' E 138°31'0 0.0
2018-Feb-11 15:28N 35°02' E 138°31'0 0.0
2018-Feb-11 14:58N 35°02' E 138°31'0 0.0
2018-Feb-11 14:28N 35°02' E 138°31'0 0.0
2018-Feb-11 13:58N 35°02' E 138°31'0 0.0
2018-Feb-11 13:28N 35°02' E 138°31'0 0.0
2018-Feb-11 12:58N 35°02' E 138°31'0 0.0
2018-Feb-11 12:28N 35°02' E 138°31'0 0.0
2018-Feb-11 11:58N 35°02' E 138°31'0 0.0
2018-Feb-11 11:28N 35°02' E 138°31'0 0.0
2018-Feb-11 10:58N 35°02' E 138°31'0 0.0
2018-Feb-11 10:28N 35°02' E 138°31'0 0.0
2018-Feb-11 09:58N 35°02' E 138°31'0 0.2
2018-Feb-11 09:31N 35°02' E 138°31'4 7.8
2018-Feb-11 09:00N 34°58' E 138°33'715.2
2018-Feb-11 08:30N 34°52' E 138°29'918.2
2018-Feb-11 08:00N 34°43' E 138°25'918.2
2018-Feb-11 07:30N 34°35' E 138°20'1018.3
2018-Feb-11 06:57N 34°33' E 138°08'918.6
2018-Feb-11 06:27N 34°31' E 137°57'1019.0
2018-Feb-11 05:56N 34°28' E 137°45'5519.4
2018-Feb-11 03:08N 34°02' E 136°48'19319.0
2018-Feb-10 16:59N 32°47' E 133°14'6218.0
2018-Feb-10 13:33N 33°11' E 132°07'322.0
2018-Feb-10 13:25N 33°13' E 132°04'921.1
2018-Feb-10 12:59N 33°19' E 131°56'918.4
2018-Feb-10 12:30N 33°17' E 131°45'2 3.6
2018-Feb-10 12:00N 33°15' E 131°45'0 0.0
2018-Feb-10 11:30N 33°15' E 131°45'0 0.0
2018-Feb-10 10:49N 33°15' E 131°45'0 0.0
2018-Feb-10 10:28N 33°15' E 131°45'0 0.0
2018-Feb-10 09:55N 33°15' E 131°45'0 0.2
2018-Feb-10 09:31N 33°15' E 131°45'4 8.8
2018-Feb-10 09:00N 33°18' E 131°49'917.4
2018-Feb-10 08:30N 33°17' E 131°60'34118.0
2018-Feb-09 13:30N 34°59' E 138°33'3 2.2
2018-Feb-09 12:00N 35°02' E 138°31'0 0.1
2018-Feb-09 09:30N 35°02' E 138°31'4 7.7
2018-Feb-09 09:00N 34°59' E 138°34'815.5
2018-Feb-09 08:31N 34°52' E 138°30'  

Dump ship's entire track history